sensor_id;sensor_type;location;lat;lon;timestamp;pressure;altitude;pressure_sealevel;temperature;humidity
14253;BME280;7210;51.502;10.722;2023-05-12T00:01:45;99597.28;;;11.23;100.00
14253;BME280;7210;51.502;10.722;2023-05-12T00:04:13;99590.72;;;11.25;100.00
14253;BME280;7210;51.502;10.722;2023-05-12T00:06:40;99597.84;;;11.25;100.00
14253;BME280;7210;51.502;10.722;2023-05-12T00:09:07;99590.16;;;11.23;100.00
14253;BME280;7210;51.502;10.722;2023-05-12T00:11:35;99577.94;;;11.22;100.00
14253;BME280;7210;51.502;10.722;2023-05-12T00:14:03;99588.78;;;11.21;100.00
14253;BME280;7210;51.502;10.722;2023-05-12T00:16:30;99588.09;;;11.14;100.00
14253;BME280;7210;51.502;10.722;2023-05-12T00:18:59;99580.84;;;11.10;100.00
14253;BME280;7210;51.502;10.722;2023-05-12T00:21:26;99581.53;;;11.05;100.00
14253;BME280;7210;51.502;10.722;2023-05-12T00:23:53;99572.44;;;11.01;100.00
14253;BME280;7210;51.502;10.722;2023-05-12T00:26:23;99574.28;;;11.01;100.00
14253;BME280;7210;51.502;10.722;2023-05-12T00:28:50;99574.16;;;11.07;100.00
14253;BME280;7210;51.502;10.722;2023-05-12T00:31:23;99576.81;;;11.07;100.00
14253;BME280;7210;51.502;10.722;2023-05-12T00:34:01;99574.72;;;11.09;100.00
14253;BME280;7210;51.502;10.722;2023-05-12T00:36:28;99578.19;;;11.10;100.00
14253;BME280;7210;51.502;10.722;2023-05-12T00:38:55;99573.59;;;11.05;100.00
14253;BME280;7210;51.502;10.722;2023-05-12T00:41:23;99571.41;;;11.02;100.00
14253;BME280;7210;51.502;10.722;2023-05-12T00:43:50;99570.00;;;11.00;100.00
14253;BME280;7210;51.502;10.722;2023-05-12T00:46:18;99574.38;;;10.94;100.00
14253;BME280;7210;51.502;10.722;2023-05-12T00:48:46;99569.09;;;10.94;100.00
14253;BME280;7210;51.502;10.722;2023-05-12T00:51:15;99575.44;;;10.93;100.00
14253;BME280;7210;51.502;10.722;2023-05-12T00:53:43;99570.34;;;10.92;100.00
14253;BME280;7210;51.502;10.722;2023-05-12T00:56:11;99569.56;;;10.91;100.00
14253;BME280;7210;51.502;10.722;2023-05-12T00:58:41;99550.13;;;10.86;100.00
14253;BME280;7210;51.502;10.722;2023-05-12T01:01:09;99562.91;;;11.00;100.00
14253;BME280;7210;51.502;10.722;2023-05-12T01:03:41;99567.00;;;10.96;100.00
14253;BME280;7210;51.502;10.722;2023-05-12T01:06:15;99558.97;;;10.91;100.00
14253;BME280;7210;51.502;10.722;2023-05-12T01:08:44;99557.25;;;10.85;100.00
14253;BME280;7210;51.502;10.722;2023-05-12T01:11:12;99561.63;;;10.80;100.00
14253;BME280;7210;51.502;10.722;2023-05-12T01:13:41;99559.19;;;10.78;100.00
14253;BME280;7210;51.502;10.722;2023-05-12T01:16:11;99564.03;;;10.81;100.00
14253;BME280;7210;51.502;10.722;2023-05-12T01:18:42;99566.09;;;10.79;100.00
14253;BME280;7210;51.502;10.722;2023-05-12T01:21:16;99564.47;;;10.78;100.00
14253;BME280;7210;51.502;10.722;2023-05-12T01:23:50;99556.34;;;10.80;100.00
14253;BME280;7210;51.502;10.722;2023-05-12T01:26:22;99553.47;;;10.81;100.00
14253;BME280;7210;51.502;10.722;2023-05-12T01:28:50;99557.59;;;10.77;100.00
14253;BME280;7210;51.502;10.722;2023-05-12T01:31:23;99559.19;;;10.78;100.00
14253;BME280;7210;51.502;10.722;2023-05-12T01:33:51;99560.81;;;10.79;100.00
14253;BME280;7210;51.502;10.722;2023-05-12T01:36:23;99567.13;;;10.78;100.00
14253;BME280;7210;51.502;10.722;2023-05-12T01:38:53;99569.78;;;10.78;100.00
14253;BME280;7210;51.502;10.722;2023-05-12T01:41:22;99572.97;;;10.80;100.00
14253;BME280;7210;51.502;10.722;2023-05-12T01:43:49;99568.72;;;10.79;100.00
14253;BME280;7210;51.502;10.722;2023-05-12T01:46:23;99566.78;;;10.86;100.00
14253;BME280;7210;51.502;10.722;2023-05-12T01:48:52;99573.69;;;10.87;100.00
14253;BME280;7210;51.502;10.722;2023-05-12T01:51:20;99573.34;;;10.84;100.00
14253;BME280;7210;51.502;10.722;2023-05-12T01:53:48;99581.97;;;10.79;100.00
14253;BME280;7210;51.502;10.722;2023-05-12T01:56:15;99599.00;;;10.83;100.00
14253;BME280;7210;51.502;10.722;2023-05-12T01:58:45;99596.38;;;10.95;100.00
14253;BME280;7210;51.502;10.722;2023-05-12T02:01:13;99582.88;;;10.96;100.00
14253;BME280;7210;51.502;10.722;2023-05-12T02:03:40;99584.97;;;10.94;100.00
14253;BME280;7210;51.502;10.722;2023-05-12T02:06:29;99593.38;;;10.91;100.00
14253;BME280;7210;51.502;10.722;2023-05-12T02:08:57;99595.88;;;10.86;100.00
14253;BME280;7210;51.502;10.722;2023-05-12T02:14:17;99590.13;;;10.78;100.00
14253;BME280;7210;51.502;10.722;2023-05-12T02:16:44;99595.66;;;10.88;100.00
14253;BME280;7210;51.502;10.722;2023-05-12T02:19:12;99586.22;;;10.92;100.00
14253;BME280;7210;51.502;10.722;2023-05-12T02:21:39;99592.34;;;10.92;100.00
14253;BME280;7210;51.502;10.722;2023-05-12T02:24:06;99593.94;;;10.93;100.00
14253;BME280;7210;51.502;10.722;2023-05-12T02:26:34;99593.03;;;10.99;100.00
14253;BME280;7210;51.502;10.722;2023-05-12T02:29:01;99596.72;;;10.98;100.00
14253;BME280;7210;51.502;10.722;2023-05-12T02:31:30;99593.94;;;10.93;100.00
14253;BME280;7210;51.502;10.722;2023-05-12T02:33:59;99605.00;;;10.90;100.00
14253;BME280;7210;51.502;10.722;2023-05-12T02:36:28;99581.38;;;10.77;100.00
14253;BME280;7210;51.502;10.722;2023-05-12T02:38:55;99597.03;;;10.79;100.00
14253;BME280;7210;51.502;10.722;2023-05-12T02:41:22;99594.03;;;10.75;100.00
14253;BME280;7210;51.502;10.722;2023-05-12T02:43:55;99583.78;;;10.67;100.00
14253;BME280;7210;51.502;10.722;2023-05-12T02:46:23;99578.72;;;10.66;100.00
14253;BME280;7210;51.502;10.722;2023-05-12T02:48:51;99576.28;;;10.64;100.00
14253;BME280;7210;51.502;10.722;2023-05-12T02:51:19;99574.94;;;10.62;100.00
14253;BME280;7210;51.502;10.722;2023-05-12T02:53:46;99581.84;;;10.63;100.00
14253;BME280;7210;51.502;10.722;2023-05-12T02:56:13;99576.09;;;10.66;100.00
14253;BME280;7210;51.502;10.722;2023-05-12T02:58:41;99574.34;;;10.71;100.00
14253;BME280;7210;51.502;10.722;2023-05-12T03:01:08;99583.31;;;10.70;100.00
14253;BME280;7210;51.502;10.722;2023-05-12T03:03:36;99577.00;;;10.71;100.00
14253;BME280;7210;51.502;10.722;2023-05-12T03:06:05;99568.63;;;10.74;100.00
14253;BME280;7210;51.502;10.722;2023-05-12T03:08:33;99571.59;;;10.66;100.00
14253;BME280;7210;51.502;10.722;2023-05-12T03:11:01;99568.38;;;10.64;100.00
14253;BME280;7210;51.502;10.722;2023-05-12T03:13:28;99566.31;;;10.66;100.00
14253;BME280;7210;51.502;10.722;2023-05-12T03:15:56;99563.91;;;10.65;100.00
14253;BME280;7210;51.502;10.722;2023-05-12T03:18:26;99565.16;;;10.62;100.00
14253;BME280;7210;51.502;10.722;2023-05-12T03:20:54;99568.72;;;10.68;100.00
14253;BME280;7210;51.502;10.722;2023-05-12T03:23:24;99567.13;;;10.67;100.00
14253;BME280;7210;51.502;10.722;2023-05-12T03:25:52;99569.97;;;10.65;100.00
14253;BME280;7210;51.502;10.722;2023-05-12T03:28:20;99568.84;;;10.61;100.00
14253;BME280;7210;51.502;10.722;2023-05-12T03:30:47;99569.41;;;10.63;100.00
14253;BME280;7210;51.502;10.722;2023-05-12T03:33:15;99570.44;;;10.62;100.00
14253;BME280;7210;51.502;10.722;2023-05-12T03:35:42;99567.00;;;10.62;100.00
14253;BME280;7210;51.502;10.722;2023-05-12T03:38:09;99568.84;;;10.61;100.00
14253;BME280;7210;51.502;10.722;2023-05-12T03:40:38;99567.22;;;10.60;100.00
14253;BME280;7210;51.502;10.722;2023-05-12T03:43:05;99574.13;;;10.61;100.00
14253;BME280;7210;51.502;10.722;2023-05-12T03:45:32;99559.28;;;10.60;100.00
14253;BME280;7210;51.502;10.722;2023-05-12T03:48:00;99561.47;;;10.63;100.00
14253;BME280;7210;51.502;10.722;2023-05-12T03:50:28;99562.38;;;10.57;100.00
14253;BME280;7210;51.502;10.722;2023-05-12T03:52:55;99565.63;;;10.59;100.00
14253;BME280;7210;51.502;10.722;2023-05-12T03:55:22;99560.75;;;10.56;100.00
14253;BME280;7210;51.502;10.722;2023-05-12T03:57:51;99565.16;;;10.62;100.00
14253;BME280;7210;51.502;10.722;2023-05-12T04:00:19;99561.59;;;10.68;100.00
14253;BME280;7210;51.502;10.722;2023-05-12T04:02:46;99568.50;;;10.69;100.00
14253;BME280;7210;51.502;10.722;2023-05-12T04:05:14;99580.34;;;10.78;100.00
14253;BME280;7210;51.502;10.722;2023-05-12T04:07:41;99579.91;;;10.81;100.00
14253;BME280;7210;51.502;10.722;2023-05-12T04:10:08;99571.50;;;10.84;100.00
14253;BME280;7210;51.502;10.722;2023-05-12T04:12:36;99564.84;;;10.82;100.00
14253;BME280;7210;51.502;10.722;2023-05-12T04:15:06;99562.41;;;10.80;100.00
14253;BME280;7210;51.502;10.722;2023-05-12T04:17:33;99570.59;;;10.79;100.00
14253;BME280;7210;51.502;10.722;2023-05-12T04:20:00;99562.88;;;10.77;100.00
14253;BME280;7210;51.502;10.722;2023-05-12T04:22:29;99566.34;;;10.89;100.00
14253;BME280;7210;51.502;10.722;2023-05-12T04:24:56;99568.41;;;10.87;100.00
14253;BME280;7210;51.502;10.722;2023-05-12T04:27:23;99568.28;;;10.82;100.00
14253;BME280;7210;51.502;10.722;2023-05-12T04:29:50;99568.28;;;10.82;100.00
14253;BME280;7210;51.502;10.722;2023-05-12T04:32:19;99563.81;;;10.94;100.00
14253;BME280;7210;51.502;10.722;2023-05-12T04:34:46;99565.19;;;10.97;100.00
14253;BME280;7210;51.502;10.722;2023-05-12T04:37:14;99567.00;;;10.96;100.00
14253;BME280;7210;51.502;10.722;2023-05-12T04:39:41;99568.66;;;10.97;100.00
14253;BME280;7210;51.502;10.722;2023-05-12T04:42:09;99582.31;;;11.06;100.00
14253;BME280;7210;51.502;10.722;2023-05-12T04:44:36;99583.72;;;11.08;100.00
14253;BME280;7210;51.502;10.722;2023-05-12T04:47:05;99578.53;;;11.13;100.00
14253;BME280;7210;51.502;10.722;2023-05-12T04:49:33;99586.00;;;11.16;100.00
14253;BME280;7210;51.502;10.722;2023-05-12T04:52:01;99594.31;;;11.19;100.00
14253;BME280;7210;51.502;10.722;2023-05-12T04:54:30;99596.25;;;11.24;100.00
14253;BME280;7210;51.502;10.722;2023-05-12T04:56:57;99604.19;;;11.35;100.00
14253;BME280;7210;51.502;10.722;2023-05-12T04:59:25;99601.19;;;11.43;100.00
14253;BME280;7210;51.502;10.722;2023-05-12T05:01:53;99595.41;;;11.46;100.00
14253;BME280;7210;51.502;10.722;2023-05-12T05:04:20;99601.66;;;11.52;100.00
14253;BME280;7210;51.502;10.722;2023-05-12T05:06:49;99593.22;;;11.55;100.00
14253;BME280;7210;51.502;10.722;2023-05-12T05:09:17;99609.34;;;11.65;100.00
14253;BME280;7210;51.502;10.722;2023-05-12T05:11:44;99596.56;;;11.73;100.00
14253;BME280;7210;51.502;10.722;2023-05-12T05:14:11;99590.47;;;11.73;100.00
14253;BME280;7210;51.502;10.722;2023-05-12T05:16:38;99595.97;;;11.83;100.00
14253;BME280;7210;51.502;10.722;2023-05-12T05:19:06;99592.47;;;11.94;100.00
14253;BME280;7210;51.502;10.722;2023-05-12T05:21:33;99590.59;;;12.06;100.00
14253;BME280;7210;51.502;10.722;2023-05-12T05:24:02;99588.69;;;12.18;100.00
14253;BME280;7210;51.502;10.722;2023-05-12T05:26:29;99584.06;;;12.25;100.00
14253;BME280;7210;51.502;10.722;2023-05-12T05:28:57;99575.28;;;12.36;100.00
14253;BME280;7210;51.502;10.722;2023-05-12T05:31:25;99584.19;;;12.46;100.00
14253;BME280;7210;51.502;10.722;2023-05-12T05:33:53;99563.88;;;12.52;100.00
14253;BME280;7210;51.502;10.722;2023-05-12T05:36:22;99563.41;;;12.55;100.00
14253;BME280;7210;51.502;10.722;2023-05-12T05:38:51;99568.84;;;12.65;100.00
14253;BME280;7210;51.502;10.722;2023-05-12T05:41:21;99570.56;;;12.71;100.00
14253;BME280;7210;51.502;10.722;2023-05-12T05:43:48;99572.47;;;12.75;100.00
14253;BME280;7210;51.502;10.722;2023-05-12T05:46:18;99570.81;;;12.86;100.00
14253;BME280;7210;51.502;10.722;2023-05-12T05:48:45;99565.00;;;12.89;100.00
14253;BME280;7210;51.502;10.722;2023-05-12T05:51:14;99576.06;;;12.97;100.00
14253;BME280;7210;51.502;10.722;2023-05-12T05:53:41;99575.47;;;13.12;100.00
14253;BME280;7210;51.502;10.722;2023-05-12T05:56:11;99576.66;;;13.21;100.00
14253;BME280;7210;51.502;10.722;2023-05-12T05:58:40;99576.81;;;13.31;100.00
14253;BME280;7210;51.502;10.722;2023-05-12T06:01:08;99569.66;;;13.31;100.00
14253;BME280;7210;51.502;10.722;2023-05-12T06:03:36;99568.59;;;13.32;100.00
14253;BME280;7210;51.502;10.722;2023-05-12T06:06:04;99582.47;;;13.56;100.00
14253;BME280;7210;51.502;10.722;2023-05-12T06:08:31;99582.13;;;13.69;100.00
14253;BME280;7210;51.502;10.722;2023-05-12T06:10:59;99583.34;;;13.83;100.00
14253;BME280;7210;51.502;10.722;2023-05-12T06:13:26;99584.56;;;13.97;100.00
14253;BME280;7210;51.502;10.722;2023-05-12T06:15:54;99579.09;;;14.03;100.00
14253;BME280;7210;51.502;10.722;2023-05-12T06:18:22;99572.19;;;14.07;100.00
14253;BME280;7210;51.502;10.722;2023-05-12T06:20:52;99574.63;;;14.09;100.00
14253;BME280;7210;51.502;10.722;2023-05-12T06:23:19;99577.59;;;14.12;100.00
14253;BME280;7210;51.502;10.722;2023-05-12T06:25:47;99572.69;;;14.26;100.00
14253;BME280;7210;51.502;10.722;2023-05-12T06:28:15;99587.66;;;14.32;100.00
14253;BME280;7210;51.502;10.722;2023-05-12T06:30:47;99592.06;;;14.48;100.00
14253;BME280;7210;51.502;10.722;2023-05-12T06:33:16;99614.28;;;14.63;100.00
14253;BME280;7210;51.502;10.722;2023-05-12T06:35:43;99615.19;;;14.74;100.00
14253;BME280;7210;51.502;10.722;2023-05-12T06:38:10;99611.53;;;14.80;100.00
14253;BME280;7210;51.502;10.722;2023-05-12T06:40:37;99622.84;;;14.92;100.00
14253;BME280;7210;51.502;10.722;2023-05-12T06:43:05;99627.75;;;15.10;100.00
14253;BME280;7210;51.502;10.722;2023-05-12T06:45:35;99638.53;;;15.29;100.00
14253;BME280;7210;51.502;10.722;2023-05-12T06:48:02;99641.38;;;15.49;100.00
14253;BME280;7210;51.502;10.722;2023-05-12T06:50:37;99655.47;;;15.86;100.00
14253;BME280;7210;51.502;10.722;2023-05-12T06:53:05;99626.09;;;15.81;100.00
14253;BME280;7210;51.502;10.722;2023-05-12T06:55:32;99638.69;;;15.96;100.00
14253;BME280;7210;51.502;10.722;2023-05-12T06:58:00;99633.66;;;15.99;100.00
14253;BME280;7210;51.502;10.722;2023-05-12T07:00:27;99636.38;;;16.09;100.00
14253;BME280;7210;51.502;10.722;2023-05-12T07:02:54;99644.16;;;16.26;99.64
14253;BME280;7210;51.502;10.722;2023-05-12T07:05:21;99641.78;;;16.24;98.44
14253;BME280;7210;51.502;10.722;2023-05-12T07:07:50;99649.75;;;16.19;97.29
14253;BME280;7210;51.502;10.722;2023-05-12T07:10:17;99658.84;;;16.28;96.25
14253;BME280;7210;51.502;10.722;2023-05-12T07:12:45;99649.03;;;16.39;94.44
14253;BME280;7210;51.502;10.722;2023-05-12T07:15:13;99672.84;;;16.60;93.64
14253;BME280;7210;51.502;10.722;2023-05-12T07:17:40;99665.91;;;16.69;92.31
14253;BME280;7210;51.502;10.722;2023-05-12T07:20:08;99671.28;;;16.84;90.85
14253;BME280;7210;51.502;10.722;2023-05-12T07:22:35;99702.31;;;17.15;90.51
14253;BME280;7210;51.502;10.722;2023-05-12T07:25:05;99719.47;;;17.39;89.70
14253;BME280;7210;51.502;10.722;2023-05-12T07:27:32;99729.63;;;17.62;89.07
14253;BME280;7210;51.502;10.722;2023-05-12T07:30:00;99705.81;;;17.71;87.20
14253;BME280;7210;51.502;10.722;2023-05-12T07:32:27;99726.38;;;17.85;86.17
14253;BME280;7210;51.502;10.722;2023-05-12T07:34:59;99712.47;;;17.88;84.66
14253;BME280;7210;51.502;10.722;2023-05-12T07:37:30;99726.38;;;17.95;83.72
14253;BME280;7210;51.502;10.722;2023-05-12T07:39:57;99746.97;;;18.00;83.40
14253;BME280;7210;51.502;10.722;2023-05-12T07:42:27;99783.88;;;18.08;83.34
14253;BME280;7210;51.502;10.722;2023-05-12T07:44:55;99833.09;;;18.42;83.02
14253;BME280;7210;51.502;10.722;2023-05-12T07:47:22;99833.88;;;18.47;81.94
14253;BME280;7210;51.502;10.722;2023-05-12T07:49:49;99823.72;;;18.44;81.06
14253;BME280;7210;51.502;10.722;2023-05-12T07:52:16;99869.22;;;18.59;80.96
14253;BME280;7210;51.502;10.722;2023-05-12T07:54:43;99846.16;;;18.68;79.54
14253;BME280;7210;51.502;10.722;2023-05-12T07:57:11;99872.56;;;18.95;78.75
14253;BME280;7210;51.502;10.722;2023-05-12T07:59:40;99913.53;;;19.20;79.09
14253;BME280;7210;51.502;10.722;2023-05-12T08:02:07;99877.06;;;19.14;76.86
14253;BME280;7210;51.502;10.722;2023-05-12T08:04:35;99884.56;;;19.22;75.49
14253;BME280;7210;51.502;10.722;2023-05-12T08:07:05;99862.06;;;19.08;74.09
14253;BME280;7210;51.502;10.722;2023-05-12T08:09:32;99895.31;;;19.12;73.58
14253;BME280;7210;51.502;10.722;2023-05-12T08:12:00;99938.75;;;19.19;73.92
14253;BME280;7210;51.502;10.722;2023-05-12T08:14:27;99966.59;;;19.18;73.99
14253;BME280;7210;51.502;10.722;2023-05-12T08:16:55;99982.69;;;19.23;73.37
14253;BME280;7210;51.502;10.722;2023-05-12T08:19:22;99946.50;;;19.21;71.95
14253;BME280;7210;51.502;10.722;2023-05-12T08:21:50;99954.03;;;19.09;71.24
14253;BME280;7210;51.502;10.722;2023-05-12T08:24:17;99987.53;;;19.11;71.11
14253;BME280;7210;51.502;10.722;2023-05-12T08:26:44;100008.72;;;19.03;71.27
14253;BME280;7210;51.502;10.722;2023-05-12T08:29:11;100015.94;;;19.07;71.08
14253;BME280;7210;51.502;10.722;2023-05-12T08:31:40;99995.56;;;19.01;69.98
14253;BME280;7210;51.502;10.722;2023-05-12T08:34:08;100017.06;;;18.96;70.16
14253;BME280;7210;51.502;10.722;2023-05-12T08:36:36;100059.41;;;19.04;70.42
14253;BME280;7210;51.502;10.722;2023-05-12T08:39:03;100087.78;;;19.15;70.65
14253;BME280;7210;51.502;10.722;2023-05-12T08:41:42;100099.88;;;19.23;70.78
14253;BME280;7210;51.502;10.722;2023-05-12T08:44:11;100121.59;;;19.31;70.79
14253;BME280;7210;51.502;10.722;2023-05-12T08:46:38;100141.97;;;19.32;71.12
14253;BME280;7210;51.502;10.722;2023-05-12T08:49:16;100120.25;;;19.29;70.78
14253;BME280;7210;51.502;10.722;2023-05-12T08:51:47;100129.38;;;19.33;70.55
14253;BME280;7210;51.502;10.722;2023-05-12T08:54:19;100176.03;;;19.37;71.75
14253;BME280;7210;51.502;10.722;2023-05-12T08:56:54;100193.97;;;19.61;71.63
14253;BME280;7210;51.502;10.722;2023-05-12T08:59:30;100191.28;;;19.81;71.41
14253;BME280;7210;51.502;10.722;2023-05-12T09:01:59;100153.09;;;19.99;70.01
14253;BME280;7210;51.502;10.722;2023-05-12T09:04:31;100134.56;;;19.97;69.36
14253;BME280;7210;51.502;10.722;2023-05-12T09:07:04;100137.00;;;19.94;69.69
14253;BME280;7210;51.502;10.722;2023-05-12T09:09:34;100145.63;;;19.81;69.77
14253;BME280;7210;51.502;10.722;2023-05-12T09:12:11;100131.44;;;19.65;69.67
14253;BME280;7210;51.502;10.722;2023-05-12T09:14:44;100156.44;;;19.46;70.59
14253;BME280;7210;51.502;10.722;2023-05-12T09:17:13;100158.59;;;19.39;70.64
14253;BME280;7210;51.502;10.722;2023-05-12T09:19:41;100173.59;;;19.40;71.02
14253;BME280;7210;51.502;10.722;2023-05-12T09:22:08;100187.56;;;19.37;71.47
14253;BME280;7210;51.502;10.722;2023-05-12T09:24:40;100210.63;;;19.38;72.30
14253;BME280;7210;51.502;10.722;2023-05-12T09:27:07;100175.75;;;19.38;71.36
14253;BME280;7210;51.502;10.722;2023-05-12T09:29:34;100162.06;;;19.35;71.41
14253;BME280;7210;51.502;10.722;2023-05-12T09:32:03;100160.72;;;19.47;70.74
14253;BME280;7210;51.502;10.722;2023-05-12T09:34:33;100137.66;;;19.46;70.52
14253;BME280;7210;51.502;10.722;2023-05-12T09:37:05;100163.94;;;19.59;70.31
14253;BME280;7210;51.502;10.722;2023-05-12T09:39:33;100139.25;;;19.57;69.94
14253;BME280;7210;51.502;10.722;2023-05-12T09:42:01;100127.94;;;19.75;69.08
14253;BME280;7210;51.502;10.722;2023-05-12T09:44:30;100129.53;;;19.81;68.93
14253;BME280;7210;51.502;10.722;2023-05-12T09:47:05;100149.63;;;19.88;68.69
14253;BME280;7210;51.502;10.722;2023-05-12T09:49:32;100130.84;;;19.88;68.81
14253;BME280;7210;51.502;10.722;2023-05-12T09:51:59;100170.28;;;20.03;68.72
14253;BME280;7210;51.502;10.722;2023-05-12T09:54:30;100181.50;;;20.20;68.35
14253;BME280;7210;51.502;10.722;2023-05-12T09:57:01;100116.50;;;20.23;67.18
14253;BME280;7210;51.502;10.722;2023-05-12T09:59:32;100115.91;;;20.31;66.39
14253;BME280;7210;51.502;10.722;2023-05-12T10:02:02;100101.38;;;20.37;65.87
14253;BME280;7210;51.502;10.722;2023-05-12T10:04:43;100049.25;;;20.33;64.29
14253;BME280;7210;51.502;10.722;2023-05-12T10:07:13;100103.47;;;20.45;64.50
14253;BME280;7210;51.502;10.722;2023-05-12T10:09:44;100136.06;;;20.72;64.79
14253;BME280;7210;51.502;10.722;2023-05-12T10:12:13;100119.06;;;20.86;63.92
14253;BME280;7210;51.502;10.722;2023-05-12T10:14:41;100094.69;;;21.06;62.57
14253;BME280;7210;51.502;10.722;2023-05-12T10:17:09;100173.75;;;21.44;63.38
14253;BME280;7210;51.502;10.722;2023-05-12T10:19:37;100135.81;;;21.69;62.22
14253;BME280;7210;51.502;10.722;2023-05-12T10:22:09;100111.53;;;21.97;60.64
14253;BME280;7210;51.502;10.722;2023-05-12T10:24:38;100113.22;;;22.12;59.99
14253;BME280;7210;51.502;10.722;2023-05-12T10:27:08;100096.56;;;22.28;59.32
14253;BME280;7210;51.502;10.722;2023-05-12T10:29:37;100094.91;;;22.32;59.00
14253;BME280;7210;51.502;10.722;2023-05-12T10:32:05;100153.66;;;22.54;59.46
14253;BME280;7210;51.502;10.722;2023-05-12T10:34:33;100026.00;;;22.45;56.63
14253;BME280;7210;51.502;10.722;2023-05-12T10:37:09;99895.50;;;22.14;53.67
14253;BME280;7210;51.502;10.722;2023-05-12T10:39:45;99859.75;;;21.76;53.20
14253;BME280;7210;51.502;10.722;2023-05-12T10:42:19;99904.41;;;21.59;53.65
14253;BME280;7210;51.502;10.722;2023-05-12T10:44:51;99833.84;;;21.25;52.40
14253;BME280;7210;51.502;10.722;2023-05-12T10:47:23;99907.88;;;21.41;53.03
14253;BME280;7210;51.502;10.722;2023-05-12T10:49:55;99989.38;;;21.65;53.53
14253;BME280;7210;51.502;10.722;2023-05-12T10:52:24;100031.81;;;21.96;53.47
14253;BME280;7210;51.502;10.722;2023-05-12T10:55:00;99991.25;;;22.06;52.40
14253;BME280;7210;51.502;10.722;2023-05-12T10:57:48;100018.56;;;22.00;52.84
14253;BME280;7210;51.502;10.722;2023-05-12T11:00:23;99954.50;;;21.97;51.60
14253;BME280;7210;51.502;10.722;2023-05-12T11:02:52;99981.84;;;22.04;51.57
14253;BME280;7210;51.502;10.722;2023-05-12T11:05:21;100022.56;;;22.39;51.29
14253;BME280;7210;51.502;10.722;2023-05-12T11:07:49;100014.75;;;22.75;49.96
14253;BME280;7210;51.502;10.722;2023-05-12T11:10:18;100110.94;;;23.11;50.95
14253;BME280;7210;51.502;10.722;2023-05-12T11:12:48;100114.03;;;23.37;50.83
14253;BME280;7210;51.502;10.722;2023-05-12T11:15:16;100011.44;;;23.23;49.21
14253;BME280;7210;51.502;10.722;2023-05-12T11:17:43;99935.22;;;22.86;48.63
14253;BME280;7210;51.502;10.722;2023-05-12T11:20:21;99928.09;;;22.63;48.68
14253;BME280;7210;51.502;10.722;2023-05-12T11:22:49;99875.41;;;22.38;47.92
14253;BME280;7210;51.502;10.722;2023-05-12T11:25:17;99925.44;;;22.12;49.03
14253;BME280;7210;51.502;10.722;2023-05-12T11:27:49;99898.81;;;21.92;48.95
14253;BME280;7210;51.502;10.722;2023-05-12T11:30:16;99866.09;;;21.67;48.77
14253;BME280;7210;51.502;10.722;2023-05-12T11:32:44;99864.69;;;21.51;48.88
14253;BME280;7210;51.502;10.722;2023-05-12T11:35:14;99869.69;;;21.39;48.93
14253;BME280;7210;51.502;10.722;2023-05-12T11:37:44;99888.09;;;21.32;49.36
14253;BME280;7210;51.502;10.722;2023-05-12T11:40:15;99863.66;;;21.28;48.69
14253;BME280;7210;51.502;10.722;2023-05-12T11:42:44;99919.66;;;21.45;48.91
14253;BME280;7210;51.502;10.722;2023-05-12T11:45:23;99923.75;;;21.61;48.63
14253;BME280;7210;51.502;10.722;2023-05-12T11:47:51;99886.56;;;21.63;48.01
14253;BME280;7210;51.502;10.722;2023-05-12T11:50:21;99999.75;;;21.76;49.27
14253;BME280;7210;51.502;10.722;2023-05-12T11:52:49;99912.31;;;21.74;47.89
14253;BME280;7210;51.502;10.722;2023-05-12T11:55:24;99877.81;;;21.76;47.21
14253;BME280;7210;51.502;10.722;2023-05-12T11:57:57;99905.81;;;21.93;47.05
14253;BME280;7210;51.502;10.722;2023-05-12T12:00:31;99847.28;;;21.99;45.74
14253;BME280;7210;51.502;10.722;2023-05-12T12:03:13;99917.50;;;22.21;46.02
14253;BME280;7210;51.502;10.722;2023-05-12T12:05:43;100045.06;;;22.67;47.07
14253;BME280;7210;51.502;10.722;2023-05-12T12:08:13;100024.38;;;23.08;45.96
14253;BME280;7210;51.502;10.722;2023-05-12T12:10:44;100042.22;;;23.36;45.50
14253;BME280;7210;51.502;10.722;2023-05-12T12:13:12;100060.34;;;23.62;45.55
14253;BME280;7210;51.502;10.722;2023-05-12T12:15:40;99951.13;;;23.55;44.07
14253;BME280;7210;51.502;10.722;2023-05-12T12:18:07;99986.50;;;23.67;44.44
14253;BME280;7210;51.502;10.722;2023-05-12T12:20:35;100009.56;;;24.13;43.48
14253;BME280;7210;51.502;10.722;2023-05-12T12:23:05;99962.44;;;24.27;42.63
14253;BME280;7210;51.502;10.722;2023-05-12T12:25:33;99877.19;;;24.21;41.56
14253;BME280;7210;51.502;10.722;2023-05-12T12:28:00;99887.88;;;24.04;42.47
14253;BME280;7210;51.502;10.722;2023-05-12T12:30:27;99842.88;;;23.65;42.65
14253;BME280;7210;51.502;10.722;2023-05-12T12:32:56;99840.84;;;23.48;42.77
14253;BME280;7210;51.502;10.722;2023-05-12T12:35:23;99751.19;;;23.02;42.54
14253;BME280;7210;51.502;10.722;2023-05-12T12:37:50;99798.78;;;22.85;43.27
14253;BME280;7210;51.502;10.722;2023-05-12T12:40:18;99899.28;;;22.90;44.20
14253;BME280;7210;51.502;10.722;2023-05-12T12:42:45;99856.72;;;22.87;43.65
14253;BME280;7210;51.502;10.722;2023-05-12T12:45:13;99791.06;;;22.92;42.32
14253;BME280;7210;51.502;10.722;2023-05-12T12:47:40;99864.88;;;22.96;43.61
14253;BME280;7210;51.502;10.722;2023-05-12T12:50:09;99874.50;;;23.02;43.38
14253;BME280;7210;51.502;10.722;2023-05-12T12:52:36;99887.19;;;23.01;43.64
14253;BME280;7210;51.502;10.722;2023-05-12T12:55:06;99813.84;;;22.86;42.86
14253;BME280;7210;51.502;10.722;2023-05-12T12:57:35;99809.47;;;22.63;43.46
14253;BME280;7210;51.502;10.722;2023-05-12T13:00:04;99848.94;;;22.72;43.40
14253;BME280;7210;51.502;10.722;2023-05-12T13:02:33;99970.78;;;22.88;44.44
14253;BME280;7210;51.502;10.722;2023-05-12T13:05:00;99925.25;;;23.13;42.83